Airfield :
LOGIN :

Register | Disclaimer

   EN    FR    IT 

 










Legend :    VFR   Marginal VFR   IFR   Intensive IFR   Very Intensive IFR
Visi :
Ceiling :
>= 8 km
>= 3000ft
5 to 8 km
1000 to 3000 ft
1500m to 5 km
500 to 1000 ft
800 to 1500m
200 to 500 ft
< 800m
< 200 ft
Symbols :   Thunderstorms  Fog  Heavy snow  Heavy precipitations  Wind > 20 kt
SIGMETs :     Misc.  Thunderstorms  Icing  Turbulence  Mountain Waves  Volcanic Ashes







- Airport Elevation : 138 ft
- IATA code : RLG


ETNL - Rostock Laage

CURRENT METAR :
  • 172220Z 21003KT 9999 FEW024 M00/M01 Q1021 BLU+

EXPIRED METARs :
  • 172147Z 19003KT 9999 SCT024 M00/M01 Q1021 BLU+
  • 172120Z 21003KT 9999 BKN024 00/M00 Q1021 WHT
  • 172020Z 20003KT 9999 FEW003 BKN025 00/M00 Q1021 BLU

TAF AMD TAF ETNL
Valid from the 17 at 19:00 until the 18 at 06:00 UTC


171910Z 1719/1806 22005KT 5000 BR SCT006 BKN025
TEMPO 1719/1806 19005KT 2000 FG BKN005 SCT030
PROB30 1722/1806 18003KT 0600 FZFG BKN002 BY ETGL
No reported NOTAMs for that airfield.



MET'MAP, your aeronautical weather chart ! - Copyright ORBIFLY December 2007 - Disclaimer

ORBIFLY MET'MAP TEAM :

Programming & Development : Alexandra Zaïnal
Concept & Development : Baudouin d'Aumeries
Co-Development & Prog : Marc-Olivier Méhu
Technical & hardware support : Manuel Goepfert

Contact : metmap@orbifly.com




SOURCES & CREDITS :

   NOAA